Repülésmeteorológia

  • METAR LHSM 230515Z 34023KT 7000 RA FEW007 OVC033 08/07 Q1008 NOSIG=
  • METAR LHSM 230445Z 34022KT 6000 RA FEW006 OVC033 08/07 Q1008 NOSIG=
  • METAR LHSM 230415Z 34020G32KT 8000 -RA FEW006 OVC033 09/07 Q1009=
  • METAR LHSM 230030Z NIL=
  • METAR LHSM 230000Z NIL=

  • TAF LHSM 230515Z 2306/2315 34018G32KT 8000 -RA SCT012 OVC030
  • TAF LHSM 221115Z 2212/2221 03016G30KT 8000 RA BKN018 BKN050
  • TAF LHSM 220815Z 2209/2218 36005KT 3000 BR SCT004 BKN080
  • TAF LHSM 220515Z 2206/2215 VRB02KT 0150 FG VV001
  • TAF LHSM 211715Z 2118/2203 VRB01KT CAVOK